sensor_id;sensor_type;location;lat;lon;timestamp;temperature;humidity
18444;DHT22;9350;53.176;8.194;2023-04-06T00:00:35;3.70;99.90
18444;DHT22;9350;53.176;8.194;2023-04-06T00:03:02;3.70;99.90
18444;DHT22;9350;53.176;8.194;2023-04-06T00:05:30;3.70;99.90
18444;DHT22;9350;53.176;8.194;2023-04-06T00:07:57;3.70;99.90
18444;DHT22;9350;53.176;8.194;2023-04-06T00:10:24;3.70;99.90
18444;DHT22;9350;53.176;8.194;2023-04-06T00:12:51;3.70;99.90
18444;DHT22;9350;53.176;8.194;2023-04-06T00:15:18;3.80;99.90
18444;DHT22;9350;53.176;8.194;2023-04-06T00:17:45;3.70;99.90
18444;DHT22;9350;53.176;8.194;2023-04-06T00:20:12;3.60;99.90
18444;DHT22;9350;53.176;8.194;2023-04-06T00:22:40;3.60;99.90
18444;DHT22;9350;53.176;8.194;2023-04-06T00:25:07;3.60;99.90
18444;DHT22;9350;53.176;8.194;2023-04-06T00:27:35;3.50;99.90
18444;DHT22;9350;53.176;8.194;2023-04-06T00:30:02;3.50;99.90
18444;DHT22;9350;53.176;8.194;2023-04-06T00:32:30;3.50;99.90
18444;DHT22;9350;53.176;8.194;2023-04-06T00:34:58;3.40;99.90
18444;DHT22;9350;53.176;8.194;2023-04-06T00:37:24;3.40;99.90
18444;DHT22;9350;53.176;8.194;2023-04-06T00:39:53;3.40;99.90
18444;DHT22;9350;53.176;8.194;2023-04-06T00:42:21;3.50;99.90
18444;DHT22;9350;53.176;8.194;2023-04-06T00:44:51;3.40;99.90
18444;DHT22;9350;53.176;8.194;2023-04-06T00:47:18;3.30;99.90
18444;DHT22;9350;53.176;8.194;2023-04-06T00:49:45;3.20;99.90
18444;DHT22;9350;53.176;8.194;2023-04-06T00:52:12;3.20;99.90
18444;DHT22;9350;53.176;8.194;2023-04-06T00:54:39;3.20;99.90
18444;DHT22;9350;53.176;8.194;2023-04-06T00:57:07;3.20;99.90
18444;DHT22;9350;53.176;8.194;2023-04-06T00:59:34;3.20;99.90
18444;DHT22;9350;53.176;8.194;2023-04-06T01:02:01;3.30;99.90
18444;DHT22;9350;53.176;8.194;2023-04-06T01:04:27;3.40;99.90
18444;DHT22;9350;53.176;8.194;2023-04-06T01:06:54;3.20;99.90
18444;DHT22;9350;53.176;8.194;2023-04-06T01:09:21;3.20;99.90
18444;DHT22;9350;53.176;8.194;2023-04-06T01:11:48;3.20;99.90
18444;DHT22;9350;53.176;8.194;2023-04-06T01:14:16;3.10;99.90
18444;DHT22;9350;53.176;8.194;2023-04-06T01:16:43;3.10;99.90
18444;DHT22;9350;53.176;8.194;2023-04-06T01:19:10;3.10;99.90
18444;DHT22;9350;53.176;8.194;2023-04-06T01:21:37;3.00;99.90
18444;DHT22;9350;53.176;8.194;2023-04-06T01:24:07;3.10;99.90
18444;DHT22;9350;53.176;8.194;2023-04-06T01:26:35;3.10;99.90
18444;DHT22;9350;53.176;8.194;2023-04-06T01:29:02;3.00;99.90
18444;DHT22;9350;53.176;8.194;2023-04-06T01:31:29;3.00;99.90
18444;DHT22;9350;53.176;8.194;2023-04-06T01:33:56;3.00;99.90
18444;DHT22;9350;53.176;8.194;2023-04-06T01:36:23;2.90;99.90
18444;DHT22;9350;53.176;8.194;2023-04-06T01:38:50;3.00;99.90
18444;DHT22;9350;53.176;8.194;2023-04-06T01:41:18;3.00;99.90
18444;DHT22;9350;53.176;8.194;2023-04-06T01:43:47;3.10;99.90
18444;DHT22;9350;53.176;8.194;2023-04-06T01:46:14;3.00;99.90
18444;DHT22;9350;53.176;8.194;2023-04-06T01:48:40;3.10;99.90
18444;DHT22;9350;53.176;8.194;2023-04-06T01:51:07;3.00;99.90
18444;DHT22;9350;53.176;8.194;2023-04-06T01:53:34;2.90;99.90
18444;DHT22;9350;53.176;8.194;2023-04-06T01:56:01;3.10;99.90
18444;DHT22;9350;53.176;8.194;2023-04-06T01:58:29;3.00;99.90
18444;DHT22;9350;53.176;8.194;2023-04-06T02:00:55;2.90;99.90
18444;DHT22;9350;53.176;8.194;2023-04-06T02:03:22;2.90;99.90
18444;DHT22;9350;53.176;8.194;2023-04-06T02:05:49;2.90;99.90
18444;DHT22;9350;53.176;8.194;2023-04-06T02:08:16;2.90;99.90
18444;DHT22;9350;53.176;8.194;2023-04-06T02:10:42;2.90;99.90
18444;DHT22;9350;53.176;8.194;2023-04-06T02:13:09;2.90;99.90
18444;DHT22;9350;53.176;8.194;2023-04-06T02:15:37;2.90;99.90
18444;DHT22;9350;53.176;8.194;2023-04-06T02:18:04;3.00;99.90
18444;DHT22;9350;53.176;8.194;2023-04-06T02:20:31;2.90;99.90
18444;DHT22;9350;53.176;8.194;2023-04-06T02:22:59;3.00;99.90
18444;DHT22;9350;53.176;8.194;2023-04-06T02:25:26;3.00;99.90
18444;DHT22;9350;53.176;8.194;2023-04-06T02:27:53;2.90;99.90
18444;DHT22;9350;53.176;8.194;2023-04-06T02:30:20;2.90;99.90
18444;DHT22;9350;53.176;8.194;2023-04-06T02:32:48;2.90;99.90
18444;DHT22;9350;53.176;8.194;2023-04-06T02:35:15;2.90;99.90
18444;DHT22;9350;53.176;8.194;2023-04-06T02:37:41;2.90;99.90
18444;DHT22;9350;53.176;8.194;2023-04-06T02:40:09;2.90;99.90
18444;DHT22;9350;53.176;8.194;2023-04-06T02:42:36;2.90;99.90
18444;DHT22;9350;53.176;8.194;2023-04-06T02:45:04;2.90;99.90
18444;DHT22;9350;53.176;8.194;2023-04-06T02:47:31;2.90;99.90
18444;DHT22;9350;53.176;8.194;2023-04-06T02:49:59;2.90;99.90
18444;DHT22;9350;53.176;8.194;2023-04-06T02:52:26;2.80;99.90
18444;DHT22;9350;53.176;8.194;2023-04-06T02:54:52;2.80;99.90
18444;DHT22;9350;53.176;8.194;2023-04-06T02:57:19;2.70;99.90
18444;DHT22;9350;53.176;8.194;2023-04-06T02:59:46;2.70;99.90
18444;DHT22;9350;53.176;8.194;2023-04-06T03:02:14;2.70;99.90
18444;DHT22;9350;53.176;8.194;2023-04-06T03:04:41;2.70;99.90
18444;DHT22;9350;53.176;8.194;2023-04-06T03:07:09;2.60;99.90
18444;DHT22;9350;53.176;8.194;2023-04-06T03:09:36;2.60;99.90
18444;DHT22;9350;53.176;8.194;2023-04-06T03:12:04;2.50;99.90
18444;DHT22;9350;53.176;8.194;2023-04-06T03:14:31;2.60;99.90
18444;DHT22;9350;53.176;8.194;2023-04-06T03:16:58;2.50;99.90
18444;DHT22;9350;53.176;8.194;2023-04-06T03:19:25;2.60;99.90
18444;DHT22;9350;53.176;8.194;2023-04-06T03:21:51;2.60;99.90
18444;DHT22;9350;53.176;8.194;2023-04-06T03:24:19;2.60;99.90
18444;DHT22;9350;53.176;8.194;2023-04-06T03:26:46;2.50;99.90
18444;DHT22;9350;53.176;8.194;2023-04-06T03:29:13;2.60;99.90
18444;DHT22;9350;53.176;8.194;2023-04-06T03:31:40;2.50;99.90
18444;DHT22;9350;53.176;8.194;2023-04-06T03:34:07;2.50;99.90
18444;DHT22;9350;53.176;8.194;2023-04-06T03:36:34;2.40;99.90
18444;DHT22;9350;53.176;8.194;2023-04-06T03:39:01;2.40;99.90
18444;DHT22;9350;53.176;8.194;2023-04-06T03:41:29;2.30;99.90
18444;DHT22;9350;53.176;8.194;2023-04-06T03:43:56;2.40;99.90
18444;DHT22;9350;53.176;8.194;2023-04-06T03:46:22;2.40;99.90
18444;DHT22;9350;53.176;8.194;2023-04-06T03:48:49;2.40;99.90
18444;DHT22;9350;53.176;8.194;2023-04-06T03:51:16;2.40;99.90
18444;DHT22;9350;53.176;8.194;2023-04-06T03:53:43;2.30;99.90
18444;DHT22;9350;53.176;8.194;2023-04-06T03:56:09;2.30;99.90
18444;DHT22;9350;53.176;8.194;2023-04-06T03:58:37;2.20;99.90
18444;DHT22;9350;53.176;8.194;2023-04-06T04:01:04;2.30;99.90
18444;DHT22;9350;53.176;8.194;2023-04-06T04:03:31;2.20;99.90
18444;DHT22;9350;53.176;8.194;2023-04-06T04:05:58;2.20;99.90
18444;DHT22;9350;53.176;8.194;2023-04-06T04:08:25;2.20;99.90
18444;DHT22;9350;53.176;8.194;2023-04-06T04:10:51;2.20;99.90
18444;DHT22;9350;53.176;8.194;2023-04-06T04:13:18;2.20;99.90
18444;DHT22;9350;53.176;8.194;2023-04-06T04:15:47;2.10;99.90
18444;DHT22;9350;53.176;8.194;2023-04-06T04:18:13;2.20;99.90
18444;DHT22;9350;53.176;8.194;2023-04-06T04:20:40;2.20;99.90
18444;DHT22;9350;53.176;8.194;2023-04-06T04:23:07;2.20;99.90
18444;DHT22;9350;53.176;8.194;2023-04-06T04:25:34;2.20;99.90
18444;DHT22;9350;53.176;8.194;2023-04-06T04:28:01;2.20;99.90
18444;DHT22;9350;53.176;8.194;2023-04-06T04:30:27;2.10;99.90
18444;DHT22;9350;53.176;8.194;2023-04-06T04:32:56;2.30;99.90
18444;DHT22;9350;53.176;8.194;2023-04-06T04:35:23;2.20;99.90
18444;DHT22;9350;53.176;8.194;2023-04-06T04:37:50;2.10;99.90
18444;DHT22;9350;53.176;8.194;2023-04-06T04:40:16;2.20;99.90
18444;DHT22;9350;53.176;8.194;2023-04-06T04:42:43;2.10;99.90
18444;DHT22;9350;53.176;8.194;2023-04-06T04:45:10;2.10;99.90
18444;DHT22;9350;53.176;8.194;2023-04-06T04:47:38;2.10;99.90
18444;DHT22;9350;53.176;8.194;2023-04-06T04:50:07;2.10;99.90
18444;DHT22;9350;53.176;8.194;2023-04-06T04:52:34;2.10;99.90
18444;DHT22;9350;53.176;8.194;2023-04-06T04:55:01;2.00;99.90
18444;DHT22;9350;53.176;8.194;2023-04-06T04:57:27;2.00;99.90
18444;DHT22;9350;53.176;8.194;2023-04-06T04:59:55;2.00;99.90
18444;DHT22;9350;53.176;8.194;2023-04-06T05:02:22;2.10;99.90
18444;DHT22;9350;53.176;8.194;2023-04-06T05:04:49;2.00;99.90
18444;DHT22;9350;53.176;8.194;2023-04-06T05:07:17;2.00;99.90
18444;DHT22;9350;53.176;8.194;2023-04-06T05:09:46;2.00;99.90
18444;DHT22;9350;53.176;8.194;2023-04-06T05:12:12;2.00;99.90
18444;DHT22;9350;53.176;8.194;2023-04-06T05:14:39;2.00;99.90
18444;DHT22;9350;53.176;8.194;2023-04-06T05:17:06;2.00;99.90
18444;DHT22;9350;53.176;8.194;2023-04-06T05:19:33;2.00;99.90
18444;DHT22;9350;53.176;8.194;2023-04-06T05:22:00;2.10;99.90
18444;DHT22;9350;53.176;8.194;2023-04-06T05:24:28;2.10;99.90
18444;DHT22;9350;53.176;8.194;2023-04-06T05:26:55;2.10;99.90
18444;DHT22;9350;53.176;8.194;2023-04-06T05:29:22;2.20;99.90
18444;DHT22;9350;53.176;8.194;2023-04-06T05:31:49;2.20;99.90
18444;DHT22;9350;53.176;8.194;2023-04-06T05:34:17;2.20;99.90
18444;DHT22;9350;53.176;8.194;2023-04-06T05:36:43;2.10;99.90
18444;DHT22;9350;53.176;8.194;2023-04-06T05:39:10;2.30;99.90
18444;DHT22;9350;53.176;8.194;2023-04-06T05:41:39;2.20;99.90
18444;DHT22;9350;53.176;8.194;2023-04-06T05:44:06;2.10;99.90
18444;DHT22;9350;53.176;8.194;2023-04-06T05:46:33;2.20;99.90
18444;DHT22;9350;53.176;8.194;2023-04-06T05:49:00;2.20;99.90
18444;DHT22;9350;53.176;8.194;2023-04-06T05:51:26;2.20;99.90
18444;DHT22;9350;53.176;8.194;2023-04-06T05:53:53;2.20;99.90
18444;DHT22;9350;53.176;8.194;2023-04-06T05:56:20;2.20;99.90
18444;DHT22;9350;53.176;8.194;2023-04-06T05:58:48;2.30;99.90
18444;DHT22;9350;53.176;8.194;2023-04-06T06:01:15;2.40;99.90
18444;DHT22;9350;53.176;8.194;2023-04-06T06:03:42;2.40;99.90
18444;DHT22;9350;53.176;8.194;2023-04-06T06:06:08;2.40;99.90
18444;DHT22;9350;53.176;8.194;2023-04-06T06:08:35;2.50;99.90
18444;DHT22;9350;53.176;8.194;2023-04-06T06:11:02;2.50;99.90
18444;DHT22;9350;53.176;8.194;2023-04-06T06:13:29;2.60;99.90
18444;DHT22;9350;53.176;8.194;2023-04-06T06:15:57;2.60;99.90
18444;DHT22;9350;53.176;8.194;2023-04-06T06:18:24;2.60;99.90
18444;DHT22;9350;53.176;8.194;2023-04-06T06:20:51;2.70;99.90
18444;DHT22;9350;53.176;8.194;2023-04-06T06:23:17;2.80;99.90
18444;DHT22;9350;53.176;8.194;2023-04-06T06:25:44;2.80;99.90
18444;DHT22;9350;53.176;8.194;2023-04-06T06:28:11;2.80;99.90
18444;DHT22;9350;53.176;8.194;2023-04-06T06:30:38;2.90;99.90
18444;DHT22;9350;53.176;8.194;2023-04-06T06:33:06;3.00;99.90
18444;DHT22;9350;53.176;8.194;2023-04-06T06:35:33;3.10;99.90
18444;DHT22;9350;53.176;8.194;2023-04-06T06:37:59;3.10;99.90
18444;DHT22;9350;53.176;8.194;2023-04-06T06:40:26;3.10;99.90
18444;DHT22;9350;53.176;8.194;2023-04-06T06:42:53;3.20;99.90
18444;DHT22;9350;53.176;8.194;2023-04-06T06:45:20;3.20;99.90
18444;DHT22;9350;53.176;8.194;2023-04-06T06:47:46;3.30;99.90
18444;DHT22;9350;53.176;8.194;2023-04-06T06:50:15;3.30;99.90
18444;DHT22;9350;53.176;8.194;2023-04-06T06:52:41;3.40;99.90
18444;DHT22;9350;53.176;8.194;2023-04-06T06:55:09;3.60;99.90
18444;DHT22;9350;53.176;8.194;2023-04-06T06:57:36;3.60;99.90
18444;DHT22;9350;53.176;8.194;2023-04-06T07:00:04;3.70;99.90
18444;DHT22;9350;53.176;8.194;2023-04-06T07:02:34;3.80;99.90
18444;DHT22;9350;53.176;8.194;2023-04-06T07:05:01;3.80;99.90
18444;DHT22;9350;53.176;8.194;2023-04-06T07:07:29;3.80;99.90
18444;DHT22;9350;53.176;8.194;2023-04-06T07:09:55;3.90;99.90
18444;DHT22;9350;53.176;8.194;2023-04-06T07:12:22;3.90;99.90
18444;DHT22;9350;53.176;8.194;2023-04-06T07:14:49;4.00;99.90
18444;DHT22;9350;53.176;8.194;2023-04-06T07:17:16;4.10;99.90
18444;DHT22;9350;53.176;8.194;2023-04-06T07:19:42;4.00;99.90
18444;DHT22;9350;53.176;8.194;2023-04-06T07:22:09;4.10;99.90
18444;DHT22;9350;53.176;8.194;2023-04-06T07:24:38;4.20;99.90
18444;DHT22;9350;53.176;8.194;2023-04-06T07:27:04;4.20;99.90
18444;DHT22;9350;53.176;8.194;2023-04-06T07:29:31;4.30;99.90
18444;DHT22;9350;53.176;8.194;2023-04-06T07:31:58;4.30;99.90
18444;DHT22;9350;53.176;8.194;2023-04-06T07:34:25;4.40;99.90
18444;DHT22;9350;53.176;8.194;2023-04-06T07:36:51;4.50;99.90
18444;DHT22;9350;53.176;8.194;2023-04-06T07:39:19;4.50;99.90
18444;DHT22;9350;53.176;8.194;2023-04-06T07:41:48;4.60;99.90
18444;DHT22;9350;53.176;8.194;2023-04-06T07:44:14;4.60;99.90
18444;DHT22;9350;53.176;8.194;2023-04-06T07:46:41;4.60;99.90
18444;DHT22;9350;53.176;8.194;2023-04-06T07:49:08;4.70;99.90
18444;DHT22;9350;53.176;8.194;2023-04-06T07:51:35;4.70;99.90
18444;DHT22;9350;53.176;8.194;2023-04-06T07:54:02;4.60;99.90
18444;DHT22;9350;53.176;8.194;2023-04-06T07:56:29;4.80;99.90
18444;DHT22;9350;53.176;8.194;2023-04-06T07:58:57;4.80;99.90
18444;DHT22;9350;53.176;8.194;2023-04-06T08:01:25;4.80;99.90
18444;DHT22;9350;53.176;8.194;2023-04-06T08:03:52;4.80;99.90
18444;DHT22;9350;53.176;8.194;2023-04-06T08:06:21;5.00;99.90
18444;DHT22;9350;53.176;8.194;2023-04-06T08:08:48;5.00;99.90
18444;DHT22;9350;53.176;8.194;2023-04-06T08:11:14;5.20;99.90
18444;DHT22;9350;53.176;8.194;2023-04-06T08:13:41;5.10;99.90
18444;DHT22;9350;53.176;8.194;2023-04-06T08:16:09;5.30;99.90
18444;DHT22;9350;53.176;8.194;2023-04-06T08:18:36;5.20;99.90
18444;DHT22;9350;53.176;8.194;2023-04-06T08:21:03;5.40;99.90
18444;DHT22;9350;53.176;8.194;2023-04-06T08:23:30;5.40;99.90
18444;DHT22;9350;53.176;8.194;2023-04-06T08:25:56;5.50;99.90
18444;DHT22;9350;53.176;8.194;2023-04-06T08:28:23;5.50;99.90
18444;DHT22;9350;53.176;8.194;2023-04-06T08:30:50;5.50;99.90
18444;DHT22;9350;53.176;8.194;2023-04-06T08:33:18;5.60;99.90
18444;DHT22;9350;53.176;8.194;2023-04-06T08:35:45;5.60;99.90
18444;DHT22;9350;53.176;8.194;2023-04-06T08:38:12;5.70;99.90
18444;DHT22;9350;53.176;8.194;2023-04-06T08:40:39;5.80;99.90
18444;DHT22;9350;53.176;8.194;2023-04-06T08:43:10;5.90;99.90
18444;DHT22;9350;53.176;8.194;2023-04-06T08:45:41;5.90;99.90
18444;DHT22;9350;53.176;8.194;2023-04-06T08:48:09;6.00;99.90
18444;DHT22;9350;53.176;8.194;2023-04-06T08:50:38;6.00;99.90
18444;DHT22;9350;53.176;8.194;2023-04-06T08:53:06;6.10;99.90
18444;DHT22;9350;53.176;8.194;2023-04-06T08:55:34;6.10;99.90
18444;DHT22;9350;53.176;8.194;2023-04-06T08:58:02;6.20;99.90
18444;DHT22;9350;53.176;8.194;2023-04-06T09:00:30;6.30;99.90
18444;DHT22;9350;53.176;8.194;2023-04-06T09:02:57;6.30;99.90
18444;DHT22;9350;53.176;8.194;2023-04-06T09:05:25;6.40;99.90
18444;DHT22;9350;53.176;8.194;2023-04-06T09:07:53;6.50;99.90
18444;DHT22;9350;53.176;8.194;2023-04-06T09:10:21;6.60;99.90
18444;DHT22;9350;53.176;8.194;2023-04-06T09:12:49;6.50;99.90
18444;DHT22;9350;53.176;8.194;2023-04-06T09:15:19;6.80;99.90
18444;DHT22;9350;53.176;8.194;2023-04-06T09:17:46;6.80;99.90
18444;DHT22;9350;53.176;8.194;2023-04-06T09:20:13;6.90;99.90
18444;DHT22;9350;53.176;8.194;2023-04-06T09:22:41;6.90;99.90
18444;DHT22;9350;53.176;8.194;2023-04-06T09:25:17;7.00;99.90
18444;DHT22;9350;53.176;8.194;2023-04-06T09:27:44;7.00;99.90
18444;DHT22;9350;53.176;8.194;2023-04-06T09:30:12;7.10;99.90
18444;DHT22;9350;53.176;8.194;2023-04-06T09:32:45;7.10;99.90
18444;DHT22;9350;53.176;8.194;2023-04-06T09:35:13;7.20;99.90
18444;DHT22;9350;53.176;8.194;2023-04-06T09:37:40;7.30;99.90
18444;DHT22;9350;53.176;8.194;2023-04-06T09:40:07;7.40;99.90
18444;DHT22;9350;53.176;8.194;2023-04-06T09:42:36;7.50;99.90
18444;DHT22;9350;53.176;8.194;2023-04-06T09:45:03;7.60;99.90
18444;DHT22;9350;53.176;8.194;2023-04-06T09:47:30;7.60;99.90
18444;DHT22;9350;53.176;8.194;2023-04-06T09:49:59;7.80;99.90
18444;DHT22;9350;53.176;8.194;2023-04-06T09:52:27;7.90;99.90
18444;DHT22;9350;53.176;8.194;2023-04-06T09:55:01;7.90;99.90
18444;DHT22;9350;53.176;8.194;2023-04-06T09:57:32;8.10;99.90
18444;DHT22;9350;53.176;8.194;2023-04-06T10:00:04;8.10;99.90
18444;DHT22;9350;53.176;8.194;2023-04-06T10:02:41;8.10;99.90
18444;DHT22;9350;53.176;8.194;2023-04-06T10:05:18;8.10;99.90
18444;DHT22;9350;53.176;8.194;2023-04-06T10:07:48;8.20;99.90
18444;DHT22;9350;53.176;8.194;2023-04-06T10:10:17;8.30;99.90
18444;DHT22;9350;53.176;8.194;2023-04-06T10:12:44;8.40;99.90
18444;DHT22;9350;53.176;8.194;2023-04-06T10:15:13;8.50;99.90
18444;DHT22;9350;53.176;8.194;2023-04-06T10:17:39;8.50;99.90
18444;DHT22;9350;53.176;8.194;2023-04-06T10:20:10;8.80;99.90
18444;DHT22;9350;53.176;8.194;2023-04-06T10:22:43;8.70;99.90
18444;DHT22;9350;53.176;8.194;2023-04-06T10:25:16;8.70;99.90
18444;DHT22;9350;53.176;8.194;2023-04-06T10:27:43;8.70;99.90
18444;DHT22;9350;53.176;8.194;2023-04-06T10:30:10;8.80;99.90
18444;DHT22;9350;53.176;8.194;2023-04-06T10:32:38;8.90;99.90
18444;DHT22;9350;53.176;8.194;2023-04-06T10:35:09;8.80;99.90
18444;DHT22;9350;53.176;8.194;2023-04-06T10:37:53;8.80;99.90
18444;DHT22;9350;53.176;8.194;2023-04-06T10:40:22;8.90;99.90
18444;DHT22;9350;53.176;8.194;2023-04-06T10:42:50;9.00;99.90
18444;DHT22;9350;53.176;8.194;2023-04-06T10:45:20;9.10;99.90
18444;DHT22;9350;53.176;8.194;2023-04-06T10:47:49;9.10;99.90
18444;DHT22;9350;53.176;8.194;2023-04-06T10:50:18;9.20;99.90
18444;DHT22;9350;53.176;8.194;2023-04-06T10:52:45;9.20;99.90
18444;DHT22;9350;53.176;8.194;2023-04-06T10:55:13;9.20;99.90
18444;DHT22;9350;53.176;8.194;2023-04-06T10:57:40;9.30;99.90
18444;DHT22;9350;53.176;8.194;2023-04-06T11:00:08;9.30;99.90
18444;DHT22;9350;53.176;8.194;2023-04-06T11:02:35;9.50;99.90
18444;DHT22;9350;53.176;8.194;2023-04-06T11:05:05;9.40;99.90
18444;DHT22;9350;53.176;8.194;2023-04-06T11:07:32;9.50;99.90
18444;DHT22;9350;53.176;8.194;2023-04-06T11:09:59;9.60;99.90
18444;DHT22;9350;53.176;8.194;2023-04-06T11:12:27;9.60;99.90
18444;DHT22;9350;53.176;8.194;2023-04-06T11:14:55;9.80;99.90
18444;DHT22;9350;53.176;8.194;2023-04-06T11:17:26;9.80;99.90
18444;DHT22;9350;53.176;8.194;2023-04-06T11:19:53;9.80;99.90
18444;DHT22;9350;53.176;8.194;2023-04-06T11:22:21;9.80;99.90
18444;DHT22;9350;53.176;8.194;2023-04-06T11:24:49;9.90;99.90
18444;DHT22;9350;53.176;8.194;2023-04-06T11:27:16;9.90;99.90
18444;DHT22;9350;53.176;8.194;2023-04-06T11:29:43;9.90;99.90
18444;DHT22;9350;53.176;8.194;2023-04-06T11:32:11;10.00;99.90
18444;DHT22;9350;53.176;8.194;2023-04-06T11:34:47;10.00;99.90
18444;DHT22;9350;53.176;8.194;2023-04-06T11:37:14;10.10;99.90
18444;DHT22;9350;53.176;8.194;2023-04-06T11:39:47;10.10;99.90
18444;DHT22;9350;53.176;8.194;2023-04-06T11:42:21;10.20;99.90
18444;DHT22;9350;53.176;8.194;2023-04-06T11:44:50;10.30;99.90
18444;DHT22;9350;53.176;8.194;2023-04-06T11:47:18;10.30;99.90
18444;DHT22;9350;53.176;8.194;2023-04-06T11:49:45;10.30;99.90
18444;DHT22;9350;53.176;8.194;2023-04-06T11:52:17;10.30;99.90
18444;DHT22;9350;53.176;8.194;2023-04-06T11:54:47;10.40;99.90
18444;DHT22;9350;53.176;8.194;2023-04-06T11:57:14;10.40;99.90
18444;DHT22;9350;53.176;8.194;2023-04-06T11:59:42;10.40;99.90
18444;DHT22;9350;53.176;8.194;2023-04-06T12:02:09;10.40;99.90
18444;DHT22;9350;53.176;8.194;2023-04-06T12:04:37;10.40;99.90
18444;DHT22;9350;53.176;8.194;2023-04-06T12:07:04;10.50;99.90
18444;DHT22;9350;53.176;8.194;2023-04-06T12:09:31;10.50;99.90
18444;DHT22;9350;53.176;8.194;2023-04-06T12:11:59;10.50;99.90
18444;DHT22;9350;53.176;8.194;2023-04-06T12:14:26;10.60;99.90
18444;DHT22;9350;53.176;8.194;2023-04-06T12:16:52;10.60;99.90
18444;DHT22;9350;53.176;8.194;2023-04-06T12:19:19;10.60;99.90
18444;DHT22;9350;53.176;8.194;2023-04-06T12:21:49;10.70;99.90
18444;DHT22;9350;53.176;8.194;2023-04-06T12:24:16;10.80;99.90
18444;DHT22;9350;53.176;8.194;2023-04-06T12:26:42;10.70;99.90
18444;DHT22;9350;53.176;8.194;2023-04-06T12:29:10;10.80;99.90
18444;DHT22;9350;53.176;8.194;2023-04-06T12:31:39;10.70;99.90
18444;DHT22;9350;53.176;8.194;2023-04-06T12:34:06;10.70;99.90
18444;DHT22;9350;53.176;8.194;2023-04-06T12:36:33;10.80;99.90
18444;DHT22;9350;53.176;8.194;2023-04-06T12:39:00;10.80;99.90
18444;DHT22;9350;53.176;8.194;2023-04-06T12:41:28;10.80;99.90
18444;DHT22;9350;53.176;8.194;2023-04-06T12:43:55;11.00;99.90
18444;DHT22;9350;53.176;8.194;2023-04-06T12:46:24;11.00;99.90
18444;DHT22;9350;53.176;8.194;2023-04-06T12:48:51;11.00;99.90
18444;DHT22;9350;53.176;8.194;2023-04-06T12:51:20;11.00;99.90
18444;DHT22;9350;53.176;8.194;2023-04-06T12:53:47;11.10;99.90
18444;DHT22;9350;53.176;8.194;2023-04-06T12:56:15;11.20;99.90
18444;DHT22;9350;53.176;8.194;2023-04-06T12:58:42;11.10;99.90
18444;DHT22;9350;53.176;8.194;2023-04-06T13:01:09;11.10;99.90
18444;DHT22;9350;53.176;8.194;2023-04-06T13:03:39;11.20;99.90
18444;DHT22;9350;53.176;8.194;2023-04-06T13:06:07;11.20;99.90
18444;DHT22;9350;53.176;8.194;2023-04-06T13:08:34;11.20;99.90
18444;DHT22;9350;53.176;8.194;2023-04-06T13:11:02;11.20;99.90
18444;DHT22;9350;53.176;8.194;2023-04-06T13:13:29;11.20;99.90
18444;DHT22;9350;53.176;8.194;2023-04-06T13:16:01;11.40;99.90
18444;DHT22;9350;53.176;8.194;2023-04-06T13:18:28;11.50;99.90
18444;DHT22;9350;53.176;8.194;2023-04-06T13:20:56;11.60;99.90
18444;DHT22;9350;53.176;8.194;2023-04-06T13:23:25;11.50;99.90
18444;DHT22;9350;53.176;8.194;2023-04-06T13:25:57;11.60;99.90
18444;DHT22;9350;53.176;8.194;2023-04-06T13:28:25;11.50;99.90
18444;DHT22;9350;53.176;8.194;2023-04-06T13:30:52;11.40;99.90
18444;DHT22;9350;53.176;8.194;2023-04-06T13:33:19;11.40;99.90
18444;DHT22;9350;53.176;8.194;2023-04-06T13:35:46;11.40;99.90
18444;DHT22;9350;53.176;8.194;2023-04-06T13:38:14;11.30;99.90
18444;DHT22;9350;53.176;8.194;2023-04-06T13:40:42;11.30;99.90
18444;DHT22;9350;53.176;8.194;2023-04-06T13:43:09;11.20;99.90
18444;DHT22;9350;53.176;8.194;2023-04-06T13:45:36;11.30;99.90
18444;DHT22;9350;53.176;8.194;2023-04-06T13:48:04;11.30;99.90
18444;DHT22;9350;53.176;8.194;2023-04-06T13:50:30;11.40;99.90
18444;DHT22;9350;53.176;8.194;2023-04-06T13:52:57;11.30;99.90
18444;DHT22;9350;53.176;8.194;2023-04-06T13:55:26;11.40;99.90
18444;DHT22;9350;53.176;8.194;2023-04-06T13:57:52;11.40;99.90
18444;DHT22;9350;53.176;8.194;2023-04-06T14:00:20;11.50;99.90
18444;DHT22;9350;53.176;8.194;2023-04-06T14:02:47;11.50;99.90
18444;DHT22;9350;53.176;8.194;2023-04-06T14:05:14;11.50;99.90
18444;DHT22;9350;53.176;8.194;2023-04-06T14:07:41;11.60;99.90
18444;DHT22;9350;53.176;8.194;2023-04-06T14:10:09;11.70;99.90
18444;DHT22;9350;53.176;8.194;2023-04-06T14:12:40;11.80;99.90
18444;DHT22;9350;53.176;8.194;2023-04-06T14:15:09;11.90;99.90
18444;DHT22;9350;53.176;8.194;2023-04-06T14:17:36;12.00;99.90
18444;DHT22;9350;53.176;8.194;2023-04-06T14:20:03;12.00;99.90
18444;DHT22;9350;53.176;8.194;2023-04-06T14:22:30;12.00;99.90
18444;DHT22;9350;53.176;8.194;2023-04-06T14:24:57;12.00;99.90
18444;DHT22;9350;53.176;8.194;2023-04-06T14:27:24;11.90;99.90
18444;DHT22;9350;53.176;8.194;2023-04-06T14:29:54;11.90;99.90
18444;DHT22;9350;53.176;8.194;2023-04-06T14:32:21;12.00;99.90
18444;DHT22;9350;53.176;8.194;2023-04-06T14:34:48;12.00;99.90
18444;DHT22;9350;53.176;8.194;2023-04-06T14:37:15;11.90;99.90
18444;DHT22;9350;53.176;8.194;2023-04-06T14:39:43;11.80;99.90
18444;DHT22;9350;53.176;8.194;2023-04-06T14:42:10;11.80;99.90
18444;DHT22;9350;53.176;8.194;2023-04-06T14:44:36;11.80;99.90
18444;DHT22;9350;53.176;8.194;2023-04-06T14:47:09;11.90;99.90
18444;DHT22;9350;53.176;8.194;2023-04-06T14:49:36;11.90;99.90
18444;DHT22;9350;53.176;8.194;2023-04-06T14:52:03;12.00;99.90
18444;DHT22;9350;53.176;8.194;2023-04-06T14:54:29;12.00;99.90
18444;DHT22;9350;53.176;8.194;2023-04-06T14:56:56;11.90;99.90
18444;DHT22;9350;53.176;8.194;2023-04-06T14:59:23;12.00;99.90
18444;DHT22;9350;53.176;8.194;2023-04-06T15:01:50;12.10;99.90
18444;DHT22;9350;53.176;8.194;2023-04-06T15:04:18;12.00;99.90
18444;DHT22;9350;53.176;8.194;2023-04-06T15:06:45;12.00;99.90
18444;DHT22;9350;53.176;8.194;2023-04-06T15:09:11;12.20;99.90
18444;DHT22;9350;53.176;8.194;2023-04-06T15:11:38;12.20;99.90
18444;DHT22;9350;53.176;8.194;2023-04-06T15:14:06;12.30;99.90
18444;DHT22;9350;53.176;8.194;2023-04-06T15:16:32;12.30;99.90
18444;DHT22;9350;53.176;8.194;2023-04-06T15:19:00;12.30;99.90
18444;DHT22;9350;53.176;8.194;2023-04-06T15:21:28;12.30;99.90
18444;DHT22;9350;53.176;8.194;2023-04-06T15:23:55;12.20;99.90
18444;DHT22;9350;53.176;8.194;2023-04-06T15:26:22;12.20;99.90
18444;DHT22;9350;53.176;8.194;2023-04-06T15:28:49;12.20;99.90
18444;DHT22;9350;53.176;8.194;2023-04-06T15:31:15;12.10;99.90
18444;DHT22;9350;53.176;8.194;2023-04-06T15:33:43;12.10;99.90
18444;DHT22;9350;53.176;8.194;2023-04-06T15:36:23;12.10;99.90
18444;DHT22;9350;53.176;8.194;2023-04-06T15:38:52;12.10;99.90
18444;DHT22;9350;53.176;8.194;2023-04-06T15:41:19;12.10;99.90
18444;DHT22;9350;53.176;8.194;2023-04-06T15:43:47;12.00;99.90
18444;DHT22;9350;53.176;8.194;2023-04-06T15:46:14;12.00;99.90
18444;DHT22;9350;53.176;8.194;2023-04-06T15:48:41;12.00;99.90
18444;DHT22;9350;53.176;8.194;2023-04-06T15:51:08;12.00;99.90
18444;DHT22;9350;53.176;8.194;2023-04-06T15:53:35;11.90;99.90
18444;DHT22;9350;53.176;8.194;2023-04-06T15:56:05;11.90;99.90
18444;DHT22;9350;53.176;8.194;2023-04-06T15:58:33;11.80;99.90